createdAt,value
2022-08-04T00:00:14.725Z,101145.34
2022-08-04T00:03:11.377Z,101143.84
2022-08-04T00:05:49.248Z,101138.63
2022-08-04T00:08:23.269Z,101145.13
2022-08-04T00:10:54.827Z,101151.66
2022-08-04T00:13:26.026Z,101141.91
2022-08-04T00:15:55.424Z,101148.44
2022-08-04T00:18:28.349Z,101145.91
2022-08-04T00:21:00.546Z,101156.13
2022-08-04T00:24:12.374Z,101154.50
2022-08-04T00:26:19.926Z,101143.00
2022-08-04T00:28:50.268Z,101141.38
2022-08-04T00:31:19.218Z,101139.75
2022-08-04T00:34:08.785Z,101141.69
2022-08-04T00:36:37.617Z,101138.34
2022-08-04T00:39:06.980Z,101142.16
2022-08-04T00:41:56.736Z,101147.72
2022-08-04T00:44:31.997Z,101139.78
2022-08-04T00:47:18.474Z,101148.03
2022-08-04T00:50:02.123Z,101140.09
2022-08-04T00:52:37.686Z,101129.47
2022-08-04T00:55:14.367Z,101122.50
2022-08-04T00:58:01.857Z,101125.47
2022-08-04T01:00:34.055Z,101131.97
2022-08-04T01:03:10.110Z,101126.78
2022-08-04T01:05:44.110Z,101121.56
2022-08-04T01:08:19.859Z,101122.66
2022-08-04T01:10:53.221Z,101123.72
2022-08-04T01:13:36.967Z,101123.97
2022-08-04T01:16:07.656Z,101121.44
2022-08-04T01:18:41.089Z,101124.41
2022-08-04T01:21:31.417Z,101130.91
2022-08-04T01:24:13.081Z,101127.44
2022-08-04T01:26:57.886Z,101127.63
2022-08-04T01:29:43.859Z,101133.31
2022-08-04T01:32:20.956Z,101129.84
2022-08-04T01:34:57.768Z,101130.16
2022-08-04T01:37:31.758Z,101136.53
2022-08-04T01:40:03.612Z,101133.06
2022-08-04T01:42:33.584Z,101127.81
2022-08-04T01:45:06.523Z,101127.16
2022-08-04T01:47:36.370Z,101126.50
2022-08-04T01:50:07.357Z,101124.75
2022-08-04T01:52:37.289Z,101132.13
2022-08-04T01:55:09.355Z,101126.94
2022-08-04T01:57:39.511Z,101128.91
2022-08-04T02:00:11.175Z,101132.56
2022-08-04T02:02:40.404Z,101127.38
2022-08-04T02:05:10.947Z,101123.13
2022-08-04T02:07:46.460Z,101128.75
2022-08-04T02:10:19.498Z,101133.44
2022-08-04T02:12:53.732Z,101120.06
2022-08-04T02:15:29.153Z,101119.31
2022-08-04T02:18:03.694Z,101126.69
2022-08-04T02:20:35.601Z,101126.78
2022-08-04T02:23:06.404Z,101127.88
2022-08-04T02:25:41.252Z,101117.97
2022-08-04T02:28:14.366Z,101119.94
2022-08-04T02:30:51.535Z,101117.34
2022-08-04T02:33:22.621Z,101113.00
2022-08-04T02:35:55.015Z,101112.16
2022-08-04T02:38:26.098Z,101106.91
2022-08-04T02:40:56.390Z,101108.88
2022-08-04T02:43:51.589Z,101108.97
2022-08-04T02:46:18.700Z,101109.19
2022-08-04T02:48:48.352Z,101111.13
2022-08-04T02:51:20.072Z,101105.81
2022-08-04T02:53:51.208Z,101112.31
2022-08-04T02:56:20.624Z,101103.41
2022-08-04T02:58:52.740Z,101100.81
2022-08-04T03:01:24.383Z,101106.31
2022-08-04T03:04:00.243Z,101105.56
2022-08-04T03:06:56.362Z,101105.66
2022-08-04T03:09:35.137Z,101110.31
2022-08-04T03:12:17.336Z,101110.50
2022-08-04T03:14:57.684Z,101111.38
2022-08-04T03:17:35.588Z,101108.78
2022-08-04T03:20:35.230Z,101111.63
2022-08-04T03:23:16.138Z,101107.25
2022-08-04T03:25:59.772Z,101120.81
2022-08-04T03:28:47.086Z,101118.19
2022-08-04T03:31:34.239Z,101119.16
2022-08-04T03:34:11.533Z,101106.56
2022-08-04T03:37:11.364Z,101112.00
2022-08-04T03:39:53.199Z,101103.97
2022-08-04T03:42:35.329Z,101110.28
2022-08-04T03:45:25.633Z,101115.69
2022-08-04T03:48:08.606Z,101115.69
2022-08-04T03:51:08.506Z,101110.28
2022-08-04T03:53:56.172Z,101117.41
2022-08-04T03:56:36.992Z,101122.63
2022-08-04T03:59:20.715Z,101116.22
2022-08-04T04:02:02.920Z,101118.75
2022-08-04T04:04:46.131Z,101129.47
2022-08-04T04:07:27.868Z,101128.41
2022-08-04T04:10:14.332Z,101132.63
2022-08-04T04:13:01.311Z,101133.31
2022-08-04T04:15:39.340Z,101128.56
2022-08-04T04:18:16.099Z,101130.09
2022-08-04T04:20:52.399Z,101141.38
2022-08-04T04:23:31.690Z,101135.66
2022-08-04T04:26:06.312Z,101136.09
2022-08-04T04:28:51.472Z,101123.00
2022-08-04T04:31:34.652Z,101124.31
2022-08-04T04:34:09.354Z,101128.22
2022-08-04T04:36:45.064Z,101130.50
2022-08-04T04:39:17.613Z,101130.94
2022-08-04T04:42:13.151Z,101127.81
2022-08-04T04:45:04.584Z,101126.44
2022-08-04T04:47:43.035Z,101130.34
2022-08-04T04:50:36.899Z,101126.25
2022-08-04T04:53:12.263Z,101131.09
2022-08-04T04:55:47.787Z,101136.84
2022-08-04T04:58:19.304Z,101129.13
2022-08-04T05:01:04.866Z,101132.19
2022-08-04T05:03:57.556Z,101131.50
2022-08-04T05:06:44.259Z,101130.84
2022-08-04T05:09:33.844Z,101131.91
2022-08-04T05:14:32.195Z,101144.72
2022-08-04T05:15:07.076Z,101138.50
2022-08-04T05:17:39.492Z,101145.00
2022-08-04T05:20:09.913Z,101137.03
2022-08-04T05:22:40.717Z,101139.06
2022-08-04T05:25:13.682Z,101130.22
2022-08-04T05:27:46.659Z,101131.25
2022-08-04T05:30:16.074Z,101135.88
2022-08-04T05:32:49.252Z,101127.84
2022-08-04T05:35:52.094Z,101132.41
2022-08-04T05:38:13.282Z,101134.16
2022-08-04T05:40:43.540Z,101137.75
2022-08-04T05:43:12.757Z,101140.38
2022-08-04T05:45:42.654Z,101144.88
2022-08-04T05:48:12.882Z,101142.03
2022-08-04T05:50:42.062Z,101132.75
2022-08-04T05:53:11.463Z,101140.56
2022-08-04T05:55:57.341Z,101143.16
2022-08-04T05:58:30.701Z,101146.09
2022-08-04T06:01:00.658Z,101144.84
2022-08-04T06:03:32.385Z,101151.63
2022-08-04T06:06:01.702Z,101144.03
2022-08-04T06:08:31.479Z,101144.47
2022-08-04T06:11:03.403Z,101151.34
2022-08-04T06:13:47.791Z,101140.09
2022-08-04T06:16:29.988Z,101149.44
2022-08-04T06:19:59.846Z,101158.03
2022-08-04T06:21:52.282Z,101157.44
2022-08-04T06:24:22.989Z,101158.81
2022-08-04T06:26:52.760Z,101157.47
2022-08-04T06:29:27.098Z,101157.09
2022-08-04T06:32:28.899Z,101153.84
2022-08-04T06:34:49.593Z,101148.69
2022-08-04T06:37:43.113Z,101152.91
2022-08-04T06:40:29.521Z,101146.88
2022-08-04T06:42:58.815Z,101142.56
2022-08-04T06:45:28.043Z,101146.91
2022-08-04T06:47:57.306Z,101139.13
2022-08-04T06:51:25.334Z,101141.56
2022-08-04T06:53:16.895Z,101142.84
2022-08-04T06:55:46.738Z,101145.28
2022-08-04T06:58:16.436Z,101146.97
2022-08-04T07:00:46.182Z,101153.13
2022-08-04T07:03:16.724Z,101147.47
2022-08-04T07:05:47.734Z,101142.69
2022-08-04T07:08:17.014Z,101145.94
2022-08-04T07:10:46.070Z,101154.13
2022-08-04T07:13:15.435Z,101146.56
2022-08-04T07:15:45.781Z,101148.22
2022-08-04T07:18:14.871Z,101140.63
2022-08-04T07:20:44.132Z,101143.19
2022-08-04T07:23:19.762Z,101144.84
2022-08-04T07:26:00.321Z,101146.50
2022-08-04T07:28:40.875Z,101138.03
2022-08-04T07:31:34.326Z,101136.91
2022-08-04T07:34:11.502Z,101140.25
2022-08-04T07:36:53.178Z,101128.19
2022-08-04T07:39:29.647Z,101142.53
2022-08-04T07:42:01.359Z,101138.84
2022-08-04T07:44:32.731Z,101136.97
2022-08-04T07:47:02.152Z,101141.31
2022-08-04T07:49:56.364Z,101141.53
2022-08-04T07:52:20.142Z,101142.34
2022-08-04T07:54:50.596Z,101135.00
2022-08-04T07:57:41.737Z,101139.84
2022-08-04T08:00:11.644Z,101144.34
2022-08-04T08:02:41.039Z,101140.59
2022-08-04T08:05:10.671Z,101135.81
2022-08-04T08:07:50.846Z,101135.00
2022-08-04T08:10:24.511Z,101144.16
2022-08-04T08:12:53.933Z,101135.75
2022-08-04T08:15:22.813Z,101143.19
2022-08-04T08:17:58.973Z,101140.44
2022-08-04T08:20:33.305Z,101141.31
2022-08-04T08:23:02.952Z,101144.06
2022-08-04T08:25:34.299Z,101136.69
2022-08-04T08:28:04.077Z,101132.25
2022-08-04T08:30:34.004Z,101128.81
2022-08-04T08:33:05.688Z,101138.13
2022-08-04T08:35:53.829Z,101133.63
2022-08-04T08:38:30.064Z,101136.38
2022-08-04T08:41:13.754Z,101143.97
2022-08-04T08:44:04.481Z,101134.81
2022-08-04T08:46:49.779Z,101126.69
2022-08-04T08:50:01.993Z,101131.22
2022-08-04T08:53:00.545Z,101135.69
2022-08-04T08:55:16.838Z,101132.03
2022-08-04T08:58:00.028Z,101127.34
2022-08-04T09:00:36.114Z,101131.13
2022-08-04T09:03:22.704Z,101127.47
2022-08-04T09:06:12.517Z,101131.25
2022-08-04T09:08:51.899Z,101126.91
2022-08-04T09:11:23.447Z,101132.59
2022-08-04T09:13:56.468Z,101126.53
2022-08-04T09:16:33.016Z,101113.91
2022-08-04T09:19:05.559Z,101115.94
2022-08-04T09:21:38.326Z,101124.75
2022-08-04T09:24:36.134Z,101115.72
2022-08-04T09:27:00.365Z,101113.28
2022-08-04T09:29:37.502Z,101121.88
2022-08-04T09:32:09.834Z,101121.13
2022-08-04T09:34:44.828Z,101116.13
2022-08-04T09:37:18.494Z,101117.28
2022-08-04T09:39:52.160Z,101116.78
2022-08-04T09:42:30.379Z,101110.03
2022-08-04T09:45:06.228Z,101113.09
2022-08-04T09:47:40.715Z,101107.00
2022-08-04T09:50:15.991Z,101103.69
2022-08-04T09:52:48.256Z,101098.50
2022-08-04T09:55:22.091Z,101104.97
2022-08-04T09:57:54.660Z,101097.88
2022-08-04T10:00:40.771Z,101099.00
2022-08-04T10:03:16.043Z,101103.63
2022-08-04T10:05:56.248Z,101097.38
2022-08-04T10:08:35.178Z,101102.16
2022-08-04T10:11:07.577Z,101105.03
2022-08-04T10:13:45.634Z,101094.25
2022-08-04T10:16:26.160Z,101099.41
2022-08-04T10:19:07.850Z,101082.06
2022-08-04T10:21:58.938Z,101090.84
2022-08-04T10:24:33.071Z,101081.97
2022-08-04T10:27:03.436Z,101085.22
2022-08-04T10:29:37.388Z,101088.47
2022-08-04T10:32:09.301Z,101087.03
2022-08-04T10:34:42.487Z,101088.34
2022-08-04T10:37:18.785Z,101090.59
2022-08-04T10:40:07.409Z,101090.69
2022-08-04T10:42:38.401Z,101083.72
2022-08-04T10:45:11.411Z,101080.38
2022-08-04T10:47:45.099Z,101082.56
2022-08-04T10:50:24.788Z,101081.13
2022-08-04T10:52:56.888Z,101083.31
2022-08-04T10:56:06.814Z,101087.22
2022-08-04T10:58:21.384Z,101073.66
2022-08-04T11:00:56.842Z,101074.78
2022-08-04T11:03:32.270Z,101077.84
2022-08-04T11:06:02.789Z,101075.56
2022-08-04T11:08:35.518Z,101075.63
2022-08-04T11:11:10.615Z,101077.81
2022-08-04T11:13:46.823Z,101080.00
2022-08-04T11:16:18.794Z,101074.53
2022-08-04T11:18:51.008Z,101072.03
2022-08-04T11:21:22.115Z,101067.84
2022-08-04T11:23:57.314Z,101073.41
2022-08-04T11:26:32.555Z,101074.75
2022-08-04T11:29:06.835Z,101069.47
2022-08-04T11:31:37.215Z,101066.34
2022-08-04T11:34:16.583Z,101072.34
2022-08-04T11:36:49.142Z,101066.00
2022-08-04T11:39:19.726Z,101065.38
2022-08-04T11:41:52.710Z,101062.03
2022-08-04T11:44:27.599Z,101048.63
2022-08-04T11:47:00.066Z,101056.34
2022-08-04T11:49:56.420Z,101056.38
2022-08-04T11:52:23.244Z,101049.16
2022-08-04T11:54:54.516Z,101048.38
2022-08-04T11:57:35.111Z,101049.31
2022-08-04T12:00:07.438Z,101045.94
2022-08-04T12:02:45.010Z,101043.84
2022-08-04T12:05:32.294Z,101044.75
2022-08-04T12:08:12.359Z,101045.63
2022-08-04T12:10:46.682Z,101046.09
2022-08-04T12:13:19.967Z,101052.09
2022-08-04T12:15:54.132Z,101055.50
2022-08-04T12:18:25.022Z,101056.59
2022-08-04T12:20:58.937Z,101052.09
2022-08-04T12:23:34.427Z,101043.13
2022-08-04T12:26:06.344Z,101046.97
2022-08-04T12:28:59.683Z,101041.59
2022-08-04T12:31:28.013Z,101042.47
2022-08-04T12:34:04.931Z,101041.81
2022-08-04T12:36:46.367Z,101031.59
2022-08-04T12:39:17.928Z,101045.63
2022-08-04T12:41:54.854Z,101036.28
2022-08-04T12:44:36.364Z,101038.00
2022-08-04T12:47:26.246Z,101041.41
2022-08-04T12:50:00.283Z,101029.91
2022-08-04T12:52:59.231Z,101032.06
2022-08-04T12:55:22.223Z,101022.03
2022-08-04T12:57:52.167Z,101024.22
2022-08-04T13:00:29.288Z,101027.47
2022-08-04T13:03:01.961Z,101026.66
2022-08-04T13:05:31.744Z,101023.25
2022-08-04T13:08:02.514Z,101019.81
2022-08-04T13:10:32.861Z,101018.16
2022-08-04T13:13:02.627Z,101012.84
2022-08-04T13:15:33.609Z,101020.53
2022-08-04T13:18:16.889Z,101009.44
2022-08-04T13:20:47.721Z,101013.50
2022-08-04T13:23:21.742Z,101009.94
2022-08-04T13:26:42.632Z,101004.81
2022-08-04T13:28:42.707Z,101002.91
2022-08-04T13:31:14.002Z,100993.09
2022-08-04T13:33:47.873Z,100998.84
2022-08-04T13:36:17.683Z,100992.88
2022-08-04T13:38:50.640Z,100996.94
2022-08-04T13:41:19.950Z,100987.13
2022-08-04T13:44:17.868Z,100986.06
2022-08-04T13:46:40.446Z,100988.41
2022-08-04T13:49:42.594Z,100996.78
2022-08-04T13:52:10.405Z,100993.75
2022-08-04T13:54:43.628Z,100990.53
2022-08-04T13:57:14.514Z,100987.63
2022-08-04T13:59:45.633Z,100987.09
2022-08-04T14:02:26.622Z,100978.06
2022-08-04T14:04:57.382Z,100979.09
2022-08-04T14:07:27.671Z,100985.16
2022-08-04T14:10:03.055Z,100976.47
2022-08-04T14:12:45.994Z,100982.16
2022-08-04T14:16:01.680Z,100976.75
2022-08-04T14:18:27.540Z,100972.94
2022-08-04T14:21:00.402Z,100972.44
2022-08-04T14:23:31.806Z,100977.94
2022-08-04T14:26:14.114Z,100977.41
2022-08-04T14:29:24.945Z,100966.84
2022-08-04T14:31:32.275Z,100973.09
2022-08-04T14:34:10.093Z,100967.22
2022-08-04T14:37:15.458Z,100964.34
2022-08-04T14:39:40.453Z,100961.97
2022-08-04T14:42:11.068Z,100967.13
2022-08-04T14:44:53.637Z,100956.75
2022-08-04T14:47:39.527Z,100953.69
2022-08-04T14:50:09.794Z,100952.59
2022-08-04T14:52:38.931Z,100953.72
2022-08-04T14:55:17.658Z,100949.75
2022-08-04T14:58:35.157Z,100950.28
2022-08-04T15:00:37.772Z,100947.41
2022-08-04T15:03:08.808Z,100949.63
2022-08-04T15:06:03.042Z,100941.38
2022-08-04T15:13:05.779Z,100949.88
2022-08-04T15:15:37.446Z,100948.66
2022-08-04T15:18:08.860Z,100946.31
2022-08-04T15:20:38.313Z,100945.06
2022-08-04T15:23:10.636Z,100947.75
2022-08-04T15:25:41.021Z,100949.34
2022-08-04T15:28:13.346Z,100947.81
2022-08-04T15:30:43.645Z,100953.41
2022-08-04T15:33:21.947Z,100950.47
2022-08-04T15:35:55.749Z,100952.31
2022-08-04T15:38:31.147Z,100945.06
2022-08-04T15:41:03.646Z,100950.94
2022-08-04T15:43:43.402Z,100948.00
2022-08-04T15:46:42.230Z,100944.72
2022-08-04T15:49:19.132Z,100940.97
2022-08-04T15:51:48.227Z,100939.47
2022-08-04T15:54:29.231Z,100943.94
2022-08-04T15:57:03.784Z,100947.31
2022-08-04T15:59:51.460Z,100936.88
2022-08-04T16:02:50.482Z,100930.66
2022-08-04T16:05:42.663Z,100940.94
2022-08-04T16:08:13.552Z,100936.16
2022-08-04T16:10:43.271Z,100936.56
2022-08-04T16:13:14.544Z,100935.50
2022-08-04T16:15:45.586Z,100938.47
2022-08-04T16:18:26.421Z,100929.81
2022-08-04T16:20:58.177Z,100930.44
2022-08-04T16:23:59.350Z,100926.88
2022-08-04T16:26:46.341Z,100915.97
2022-08-04T16:29:27.783Z,100929.13
2022-08-04T16:32:13.378Z,100928.41
2022-08-04T16:34:54.725Z,100928.56
2022-08-04T16:37:30.541Z,100931.94
2022-08-04T16:40:18.405Z,100922.28
2022-08-04T16:42:47.197Z,100934.34
2022-08-04T16:45:16.518Z,100922.09
2022-08-04T16:48:07.680Z,100923.25
2022-08-04T16:50:47.478Z,100918.63
2022-08-04T16:53:53.650Z,100918.69
2022-08-04T16:56:10.138Z,100911.88
2022-08-04T16:58:52.971Z,100905.22
2022-08-04T17:01:34.188Z,100913.44
2022-08-04T17:04:06.492Z,100915.63
2022-08-04T17:06:39.741Z,100906.00
2022-08-04T17:09:12.603Z,100911.81
2022-08-04T17:11:42.263Z,100905.72
2022-08-04T17:14:11.467Z,100910.38
2022-08-04T17:16:41.363Z,100905.97
2022-08-04T17:19:23.708Z,100910.78
2022-08-04T17:22:02.836Z,100900.41
2022-08-04T17:24:35.939Z,100902.09
2022-08-04T17:28:18.947Z,100897.16
2022-08-04T17:29:54.557Z,100903.19
2022-08-04T17:32:24.169Z,100905.28
2022-08-04T17:34:54.599Z,100901.72
2022-08-04T17:37:39.766Z,100908.41
2022-08-04T17:40:14.265Z,100907.63
2022-08-04T17:42:47.139Z,100909.31
2022-08-04T17:45:49.113Z,100908.22
2022-08-04T17:48:08.996Z,100897.66
2022-08-04T17:50:43.519Z,100897.78
2022-08-04T17:53:13.539Z,100900.50
2022-08-04T17:55:44.591Z,100902.28
2022-08-04T17:58:21.137Z,100900.22
2022-08-04T18:01:24.482Z,100902.78
2022-08-04T18:03:51.744Z,100907.56
2022-08-04T18:06:23.210Z,100906.09
2022-08-04T18:08:58.815Z,100910.38
2022-08-04T18:11:41.832Z,100913.59
2022-08-04T18:14:11.375Z,100910.63
2022-08-04T18:16:45.970Z,100910.97
2022-08-04T18:19:18.974Z,100908.63
2022-08-04T18:22:00.027Z,100909.84
2022-08-04T18:24:35.131Z,100908.72
2022-08-04T18:27:22.351Z,100917.59
2022-08-04T18:30:33.569Z,100908.78
2022-08-04T18:36:33.572Z,100918.16
2022-08-04T18:38:23.853Z,100920.59
2022-08-04T18:40:54.738Z,100910.63
2022-08-04T18:46:16.401Z,100915.03
2022-08-04T18:48:52.180Z,100928.28
2022-08-04T18:51:23.898Z,100917.47
2022-08-04T18:54:00.132Z,100921.34
2022-08-04T18:56:31.658Z,100927.94
2022-08-04T18:59:04.781Z,100923.31
2022-08-04T19:02:17.008Z,100931.63
2022-08-04T19:04:32.197Z,100930.97
2022-08-04T19:07:29.686Z,100931.97
2022-08-04T19:09:57.362Z,100938.53
2022-08-04T19:12:28.377Z,100942.16
2022-08-04T19:15:19.479Z,100934.06
2022-08-04T19:17:52.414Z,100938.44
2022-08-04T19:20:24.981Z,100938.41
2022-08-04T19:24:29.162Z,100941.97
2022-08-04T19:26:01.958Z,100942.72
2022-08-04T19:28:36.554Z,100949.22
2022-08-04T19:31:08.766Z,100935.19
2022-08-04T19:33:58.418Z,100941.09
2022-08-04T19:36:29.502Z,100939.94
2022-08-04T19:39:01.136Z,100941.38
2022-08-04T19:41:32.062Z,100954.66
2022-08-04T19:44:01.050Z,100953.34
2022-08-04T19:46:31.218Z,100950.13
2022-08-04T19:49:00.826Z,100954.25
2022-08-04T19:51:30.584Z,100955.63
2022-08-04T19:54:04.054Z,100953.25
2022-08-04T19:56:41.410Z,100956.72
2022-08-04T19:59:10.933Z,100949.66
2022-08-04T20:01:45.070Z,100958.25
2022-08-04T20:04:14.780Z,100960.09
2022-08-04T20:06:44.054Z,100954.94
2022-08-04T20:09:26.149Z,100949.63
2022-08-04T20:11:56.276Z,100948.91
2022-08-04T20:14:32.325Z,100950.94
2022-08-04T20:17:10.393Z,100952.81
2022-08-04T20:19:39.487Z,100956.69
2022-08-04T20:22:51.869Z,100952.22
2022-08-04T20:25:11.100Z,100960.75
2022-08-04T20:28:00.258Z,100954.53
2022-08-04T20:30:29.860Z,100960.50
2022-08-04T20:33:01.275Z,100961.47
2022-08-04T20:35:30.279Z,100959.66
2022-08-04T20:38:01.500Z,100958.75
2022-08-04T20:40:30.717Z,100957.16
2022-08-04T20:42:59.714Z,100953.50
2022-08-04T20:45:55.945Z,100955.31
2022-08-04T20:48:19.024Z,100959.34
2022-08-04T20:50:54.605Z,100956.66
2022-08-04T20:53:32.642Z,100959.50
2022-08-04T20:56:12.346Z,100960.44
2022-08-04T20:58:59.282Z,100951.47
2022-08-04T21:01:30.391Z,100955.13
2022-08-04T21:04:27.357Z,100953.31
2022-08-04T21:06:58.308Z,100968.13
2022-08-04T21:09:38.480Z,100969.88
2022-08-04T21:12:27.824Z,100970.84
2022-08-04T21:15:00.631Z,100967.25
2022-08-04T21:17:58.278Z,100976.44
2022-08-04T21:20:27.233Z,100966.53
2022-08-04T21:22:59.630Z,100967.28
2022-08-04T21:25:28.843Z,100971.94
2022-08-04T21:27:58.900Z,100970.94
2022-08-04T21:30:52.254Z,100975.44
2022-08-04T21:33:22.842Z,100973.91
2022-08-04T21:35:53.897Z,100970.19
2022-08-04T21:38:25.160Z,100962.69
2022-08-04T21:40:58.468Z,100972.66
2022-08-04T21:43:42.464Z,100968.22
2022-08-04T21:46:11.946Z,100975.31
2022-08-04T21:48:42.515Z,100972.41
2022-08-04T21:51:58.694Z,100970.38
2022-08-04T21:54:07.658Z,100968.41
2022-08-04T21:56:37.949Z,100970.97
2022-08-04T21:59:11.511Z,100967.97
2022-08-04T22:01:51.967Z,100957.75
2022-08-04T22:04:21.666Z,100964.78
2022-08-04T22:06:52.760Z,100965.34
2022-08-04T22:09:22.447Z,100976.84
2022-08-04T22:11:52.144Z,100968.34
2022-08-04T22:14:29.552Z,100956.25
2022-08-04T22:17:04.114Z,100958.69
2022-08-04T22:19:54.545Z,100961.97
2022-08-04T22:22:24.706Z,100968.84
2022-08-04T22:24:58.639Z,100968.56
2022-08-04T22:27:47.244Z,100964.66
2022-08-04T22:30:17.912Z,100966.22
2022-08-04T22:32:47.401Z,100968.63
2022-08-04T22:35:44.062Z,100964.56
2022-08-04T22:38:22.320Z,100968.88
2022-08-04T22:40:59.262Z,100965.97
2022-08-04T22:43:31.763Z,100962.03
2022-08-04T22:46:05.168Z,100968.03
2022-08-04T22:48:36.333Z,100965.84
2022-08-04T22:51:06.222Z,100962.81
2022-08-04T22:53:37.741Z,100956.88
2022-08-04T22:58:45.575Z,100967.03
2022-08-04T23:01:19.529Z,100960.38
2022-08-04T23:03:51.228Z,100957.06
2022-08-04T23:06:28.640Z,100962.03
2022-08-04T23:08:59.489Z,100965.16
2022-08-04T23:11:34.841Z,100959.94
2022-08-04T23:14:05.654Z,100956.78
2022-08-04T23:16:40.684Z,100953.53
2022-08-04T23:19:12.203Z,100960.13
2022-08-04T23:21:47.172Z,100946.78
2022-08-04T23:24:18.341Z,100944.31
2022-08-04T23:26:47.799Z,100949.88
2022-08-04T23:29:16.565Z,100942.84
2022-08-04T23:31:59.195Z,100948.44
2022-08-04T23:34:29.127Z,100935.78
2022-08-04T23:36:59.243Z,100937.78
2022-08-04T23:40:03.818Z,100932.22
2022-08-04T23:42:21.209Z,100932.81
2022-08-04T23:44:50.811Z,100926.25
2022-08-04T23:48:18.488Z,100933.28
2022-08-04T23:50:09.466Z,100924.97
2022-08-04T23:52:38.456Z,100931.88
2022-08-04T23:55:19.037Z,100919.75
2022-08-04T23:58:06.129Z,100921.34
